Time;durP1;ratioP1;P1;durP2;ratioP2;P2;SDS_P1;SDS_P2;PMS_P1;PMS_P2;Temp;Humidity;BMP_temperature;BMP_pressure;BME280_temperature;BME280_humidity;BME280_pressure;Samples;Min_cycle;Max_cycle;Signal;HPM_P1;HPM_P2
2021/09/30 00:00:48;;;;;;;4.80;0.40;;;9.70;99.90;;;;;;5030354;28;20083;-61
2021/09/30 00:03:14;;;;;;;3.30;0.40;;;9.70;99.90;;;;;;5029716;28;20076;-60
2021/09/30 00:05:41;;;;;;;13.90;1.92;;;9.70;99.90;;;;;;5030201;28;20042;-60
2021/09/30 00:08:09;;;;;;;5.78;0.30;;;9.70;99.90;;;;;;5029416;28;20026;-60
2021/09/30 00:10:36;;;;;;;3.28;0.40;;;9.70;99.90;;;;;;5029958;28;20567;-62
2021/09/30 00:13:12;;;;;;;3.83;0.30;;;9.70;99.90;;;;;;5029082;28;20044;-60
2021/09/30 00:18:24;;;;;;;6.32;0.40;;;9.80;99.90;;;;;;5029176;28;20080;-60
2021/09/30 02:23:57;;;;;;;7.45;0.82;;;9.10;99.90;;;;;;5027495;28;20045;-61
2021/09/30 02:35:05;;;;;;;8.32;0.80;;;9.10;99.90;;;;;;4947357;29;20060;-59
2021/09/30 02:59:43;;;;;;;4.43;0.75;;;9.10;99.90;;;;;;5031034;28;20139;-61
2021/09/30 03:02:10;;;;;;;5.95;0.57;;;9.10;99.90;;;;;;5031331;28;20053;-60
2021/09/30 03:04:38;;;;;;;4.53;0.38;;;9.00;99.90;;;;;;5030875;28;20040;-60
2021/09/30 03:07:06;;;;;;;5.90;1.02;;;9.00;99.90;;;;;;5029780;28;20039;-60
2021/09/30 03:09:39;;;;;;;9.25;0.80;;;9.00;99.90;;;;;;5030606;28;20075;-60
2021/09/30 03:12:18;;;;;;;2.97;0.70;;;9.00;99.90;;;;;;5031594;28;20564;-62
2021/09/30 03:14:48;;;;;;;1.58;0.38;;;9.00;99.90;;;;;;5026718;28;20386;-62
2021/09/30 03:17:21;;;;;;;6.30;0.80;;;9.00;99.90;;;;;;5025936;28;20034;-61
2021/09/30 03:19:58;;;;;;;3.47;0.50;;;9.00;99.90;;;;;;5026764;28;20037;-61
2021/09/30 03:22:24;;;;;;;3.38;0.40;;;9.00;99.90;;;;;;5028583;28;20095;-61
2021/09/30 03:24:50;;;;;;;4.95;0.98;;;9.00;99.90;;;;;;5030475;28;20159;-61
2021/09/30 03:27:17;;;;;;;7.25;0.93;;;9.00;99.90;;;;;;5031234;28;20125;-62
2021/09/30 03:29:43;;;;;;;10.93;1.25;;;9.00;99.90;;;;;;5028363;28;20033;-62
2021/09/30 03:32:10;;;;;;;2.50;0.60;;;9.00;99.90;;;;;;5030846;28;20541;-61
2021/09/30 03:34:36;;;;;;;5.93;0.50;;;9.00;99.90;;;;;;5030017;28;20037;-62
2021/09/30 03:37:03;;;;;;;12.27;0.88;;;9.00;99.90;;;;;;5030925;28;20499;-61
2021/09/30 03:39:29;;;;;;;5.57;0.57;;;9.00;99.90;;;;;;5030327;28;20649;-61
2021/09/30 03:41:54;;;;;;;3.20;0.50;;;8.90;99.90;;;;;;5030194;28;20061;-61
2021/09/30 03:44:21;;;;;;;5.25;0.80;;;8.90;99.90;;;;;;5030474;28;20112;-61
2021/09/30 03:46:51;;;;;;;6.13;0.63;;;8.90;99.90;;;;;;5029665;28;20061;-62
2021/09/30 03:49:26;;;;;;;2.47;0.60;;;8.90;99.90;;;;;;5029837;28;20083;-61
2021/09/30 03:52:46;;;;;;;4.72;0.68;;;8.80;99.90;;;;;;5030008;28;20041;-61
2021/09/30 03:57:21;;;;;;;6.85;0.75;;;8.80;99.90;;;;;;5030371;28;20393;-61
2021/09/30 03:59:48;;;;;;;8.02;0.68;;;8.80;99.90;;;;;;5026546;28;20152;-62
2021/09/30 04:02:14;;;;;;;11.93;0.85;;;8.80;99.90;;;;;;5030366;28;20092;-63
2021/09/30 04:04:39;;;;;;;2.95;0.45;;;8.80;99.90;;;;;;5030345;28;20026;-61
2021/09/30 04:07:09;;;;;;;4.60;0.50;;;8.70;99.90;;;;;;5029979;28;20049;-62
2021/09/30 04:09:37;;;;;;;4.13;0.90;;;8.80;99.90;;;;;;5030145;28;20280;-61
2021/09/30 04:12:09;;;;;;;2.97;0.60;;;8.80;99.90;;;;;;5029275;28;20033;-61
2021/09/30 04:14:34;;;;;;;5.45;0.70;;;8.80;99.90;;;;;;5030060;28;20080;-61
2021/09/30 04:17:00;;;;;;;10.93;1.13;;;8.80;99.90;;;;;;5029634;28;20057;-61
2021/09/30 04:19:26;;;;;;;7.80;0.40;;;8.80;99.90;;;;;;5029234;28;20824;-62
2021/09/30 04:21:53;;;;;;;12.13;0.70;;;8.80;99.90;;;;;;5029140;28;20064;-63
2021/09/30 04:24:20;;;;;;;9.38;0.70;;;8.80;99.90;;;;;;5027323;28;20029;-61
2021/09/30 04:26:50;;;;;;;14.52;1.73;;;8.80;99.90;;;;;;5029548;28;20018;-61
2021/09/30 04:29:16;;;;;;;5.03;0.87;;;8.80;99.90;;;;;;5029565;28;20033;-62
2021/09/30 04:31:42;;;;;;;4.22;0.70;;;8.70;99.90;;;;;;5029662;28;20687;-61
2021/09/30 04:34:08;;;;;;;4.55;1.02;;;8.70;99.90;;;;;;5025060;28;20030;-61
2021/09/30 04:36:34;;;;;;;1.35;0.40;;;8.80;99.90;;;;;;5036720;28;20044;-62
2021/09/30 04:38:59;;;;;;;11.93;1.05;;;8.70;99.90;;;;;;5032898;28;20124;-62
2021/09/30 04:41:25;;;;;;;6.65;0.93;;;8.80;99.90;;;;;;5028081;28;20064;-61
2021/09/30 04:43:51;;;;;;;3.88;0.63;;;8.70;99.90;;;;;;5032690;28;20064;-64
2021/09/30 04:46:19;;;;;;;6.20;0.82;;;8.80;99.90;;;;;;5037007;28;20079;-61
2021/09/30 04:48:45;;;;;;;5.28;0.85;;;8.70;99.90;;;;;;5038326;28;20167;-60
2021/09/30 04:51:11;;;;;;;6.10;0.75;;;8.80;99.90;;;;;;5037430;28;20481;-61
2021/09/30 04:53:37;;;;;;;10.02;0.65;;;8.80;99.90;;;;;;5035331;28;20440;-61
2021/09/30 04:56:03;;;;;;;6.63;0.80;;;8.80;99.90;;;;;;5033585;28;20029;-62
2021/09/30 04:58:28;;;;;;;5.90;1.10;;;8.80;99.90;;;;;;5027908;28;20060;-61
2021/09/30 05:00:55;;;;;;;4.85;0.70;;;8.80;99.90;;;;;;5028732;28;20493;-61
2021/09/30 05:03:20;;;;;;;5.53;1.40;;;8.70;99.90;;;;;;5029054;28;20037;-62
2021/09/30 05:05:46;;;;;;;9.50;1.77;;;8.80;99.90;;;;;;5023846;28;20611;-62
2021/09/30 05:08:12;;;;;;;7.88;0.60;;;8.80;99.90;;;;;;5025613;28;20041;-61
2021/09/30 05:10:39;;;;;;;9.63;0.50;;;8.80;99.90;;;;;;5024747;28;20099;-62
2021/09/30 05:13:06;;;;;;;10.32;1.33;;;8.90;99.90;;;;;;5025032;28;20224;-62
2021/09/30 05:15:33;;;;;;;9.75;0.98;;;8.90;99.90;;;;;;5025776;28;20059;-62
2021/09/30 05:18:00;;;;;;;3.53;0.88;;;8.90;99.90;;;;;;5025667;28;20441;-61
2021/09/30 05:20:26;;;;;;;4.65;0.82;;;9.00;99.90;;;;;;5025509;28;20044;-61
2021/09/30 05:22:52;;;;;;;7.15;0.98;;;9.10;99.90;;;;;;5025755;28;20041;-62
2021/09/30 05:25:18;;;;;;;3.50;1.33;;;9.10;99.90;;;;;;5025378;28;20111;-61
2021/09/30 05:27:43;;;;;;;3.95;1.10;;;9.20;99.90;;;;;;5025919;28;20052;-61
2021/09/30 05:30:10;;;;;;;6.15;1.38;;;9.20;99.90;;;;;;5025255;28;20037;-61
2021/09/30 05:32:36;;;;;;;9.63;0.90;;;9.20;99.90;;;;;;5025079;28;20045;-62
2021/09/30 05:35:02;;;;;;;6.78;0.88;;;9.20;99.90;;;;;;5025468;28;20485;-62
2021/09/30 05:37:29;;;;;;;4.40;0.60;;;9.20;99.90;;;;;;5025381;28;20107;-63
2021/09/30 05:39:55;;;;;;;9.57;0.80;;;9.20;99.90;;;;;;5025714;28;20896;-61
2021/09/30 05:42:23;;;;;;;6.97;1.00;;;9.20;99.90;;;;;;5024816;28;20444;-63
2021/09/30 05:44:48;;;;;;;6.35;0.52;;;9.20;99.90;;;;;;5026319;28;20044;-61
2021/09/30 05:47:14;;;;;;;7.82;0.75;;;9.20;99.90;;;;;;5025181;28;20034;-61
2021/09/30 05:49:39;;;;;;;4.68;1.02;;;9.20;99.90;;;;;;5025473;28;20052;-62
2021/09/30 05:52:05;;;;;;;5.45;0.80;;;9.20;99.90;;;;;;5025141;28;20477;-61
2021/09/30 05:54:31;;;;;;;3.38;0.90;;;9.20;99.90;;;;;;5025540;28;20037;-61
2021/09/30 05:56:56;;;;;;;8.05;1.08;;;9.20;99.90;;;;;;5025786;28;20034;-62
2021/09/30 05:59:22;;;;;;;13.50;1.15;;;9.10;99.90;;;;;;5025090;28;20030;-62
2021/09/30 06:12:34;;;;;;;3.50;0.50;;;9.10;99.90;;;;;;5028588;28;20578;-62
2021/09/30 06:15:01;;;;;;;6.28;1.13;;;9.10;99.90;;;;;;5029333;28;20033;-61
2021/09/30 06:17:28;;;;;;;3.58;0.57;;;9.10;99.90;;;;;;5028341;28;20025;-61
2021/09/30 06:19:54;;;;;;;5.13;0.50;;;9.10;99.90;;;;;;5028967;28;20057;-61
2021/09/30 06:22:19;;;;;;;5.45;0.88;;;9.10;99.90;;;;;;5029466;28;20076;-62
2021/09/30 06:24:45;;;;;;;5.53;0.50;;;9.20;99.90;;;;;;5028700;28;20107;-61
2021/09/30 06:27:10;;;;;;;7.13;1.08;;;9.20;99.90;;;;;;5029338;28;20061;-61
2021/09/30 06:29:36;;;;;;;2.88;0.57;;;9.20;99.90;;;;;;5028808;28;20041;-62
2021/09/30 06:32:02;;;;;;;7.57;0.75;;;9.30;99.90;;;;;;5026279;28;20041;-61
2021/09/30 06:34:27;;;;;;;4.85;0.93;;;9.30;99.90;;;;;;5029293;28;20057;-62
2021/09/30 06:36:53;;;;;;;10.48;0.90;;;9.30;99.90;;;;;;5029333;28;20040;-61
2021/09/30 06:39:19;;;;;;;5.85;0.70;;;9.30;99.90;;;;;;5027745;28;20029;-61
2021/09/30 06:41:44;;;;;;;6.68;1.00;;;9.30;99.90;;;;;;5026764;28;20069;-61
2021/09/30 06:44:10;;;;;;;8.02;0.77;;;9.40;99.90;;;;;;5028794;28;20026;-61
2021/09/30 06:46:35;;;;;;;2.92;0.70;;;9.50;99.90;;;;;;5028417;28;20033;-61
2021/09/30 06:49:01;;;;;;;3.22;0.70;;;9.60;99.90;;;;;;5029039;28;20091;-61
2021/09/30 06:51:27;;;;;;;4.85;0.70;;;9.70;99.90;;;;;;5028338;28;20029;-61
2021/09/30 06:53:52;;;;;;;2.85;0.65;;;9.80;99.90;;;;;;5028267;28;20102;-61
2021/09/30 06:56:20;;;;;;;16.52;1.15;;;9.90;99.90;;;;;;5029146;28;20099;-61
2021/09/30 06:58:47;;;;;;;3.40;0.50;;;10.10;99.90;;;;;;5027934;28;20191;-62
2021/09/30 07:01:15;;;;;;;9.13;1.48;;;10.20;99.90;;;;;;5028524;28;20054;-62
2021/09/30 07:03:41;;;;;;;3.67;0.60;;;10.40;99.90;;;;;;5027938;28;20051;-61
2021/09/30 07:06:07;;;;;;;4.20;1.08;;;10.40;99.90;;;;;;5027769;28;20116;-61
2021/09/30 07:08:33;;;;;;;7.10;1.40;;;10.60;99.90;;;;;;5028363;28;20128;-63
2021/09/30 07:10:59;;;;;;;7.88;1.75;;;10.60;99.90;;;;;;5027837;28;20061;-61
2021/09/30 07:13:25;;;;;;;3.05;0.95;;;10.70;99.90;;;;;;5028463;28;20076;-61
2021/09/30 07:15:52;;;;;;;4.82;0.98;;;10.80;99.90;;;;;;5027726;28;20037;-62
2021/09/30 07:18:20;;;;;;;4.57;1.38;;;10.90;99.90;;;;;;5026999;28;20036;-61
2021/09/30 07:20:53;;;;;;;9.35;0.93;;;10.80;99.90;;;;;;5027655;28;20045;-61
2021/09/30 07:23:19;;;;;;;7.63;1.27;;;10.90;99.90;;;;;;5027778;28;20034;-62
2021/09/30 07:25:45;;;;;;;7.53;1.33;;;11.00;99.90;;;;;;5027498;28;20072;-62
2021/09/30 07:28:10;;;;;;;5.78;0.90;;;11.10;99.90;;;;;;5027982;28;20065;-61
2021/09/30 07:30:36;;;;;;;10.18;1.88;;;11.20;99.90;;;;;;5027181;28;20049;-63
2021/09/30 07:33:02;;;;;;;3.67;1.45;;;11.30;99.90;;;;;;5028231;28;20030;-62
2021/09/30 07:35:28;;;;;;;8.50;1.20;;;11.40;99.90;;;;;;5026760;28;20111;-61
2021/09/30 07:37:55;;;;;;;2.65;0.70;;;11.50;99.90;;;;;;5027579;28;20051;-61
2021/09/30 07:40:22;;;;;;;3.90;0.82;;;11.60;99.90;;;;;;5027243;28;20041;-61
2021/09/30 07:42:48;;;;;;;10.23;1.40;;;11.60;99.90;;;;;;5027495;28;20045;-62
2021/09/30 07:45:14;;;;;;;6.63;1.30;;;11.50;99.90;;;;;;5028045;28;20033;-62
2021/09/30 07:47:41;;;;;;;4.18;1.02;;;11.40;99.90;;;;;;5027085;28;20037;-61
2021/09/30 07:50:07;;;;;;;6.50;1.08;;;11.40;99.90;;;;;;5027803;28;20150;-62
2021/09/30 07:52:33;;;;;;;6.82;1.10;;;11.40;99.90;;;;;;5027363;28;20128;-62
2021/09/30 07:55:00;;;;;;;5.75;1.45;;;11.40;99.90;;;;;;5025860;28;20116;-61
2021/09/30 07:57:26;;;;;;;5.00;1.00;;;11.50;99.90;;;;;;5026166;28;20125;-61
2021/09/30 07:59:52;;;;;;;7.03;1.13;;;11.50;99.90;;;;;;5025303;28;20029;-61
2021/09/30 08:02:18;;;;;;;4.55;1.27;;;11.50;99.90;;;;;;5027565;28;20033;-61
2021/09/30 08:04:43;;;;;;;4.88;0.80;;;11.60;99.90;;;;;;5026789;28;20456;-65
2021/09/30 08:07:09;;;;;;;3.65;1.30;;;11.70;99.90;;;;;;5027174;28;20132;-62
2021/09/30 08:09:35;;;;;;;5.95;1.10;;;11.70;99.90;;;;;;5024415;28;20037;-62
2021/09/30 08:12:02;;;;;;;6.60;0.85;;;11.80;99.90;;;;;;5026731;28;20049;-61
2021/09/30 08:14:27;;;;;;;4.60;0.80;;;11.90;99.90;;;;;;5023943;28;20477;-62
2021/09/30 08:16:53;;;;;;;4.40;0.82;;;11.90;99.90;;;;;;5026496;28;20025;-61
2021/09/30 08:19:19;;;;;;;4.03;1.10;;;12.00;99.90;;;;;;5025762;28;22052;-61
2021/09/30 08:21:44;;;;;;;3.55;1.20;;;12.10;99.90;;;;;;5026589;28;20061;-61
2021/09/30 08:24:17;;;;;;;6.93;1.40;;;12.20;99.90;;;;;;5026465;28;20101;-62
2021/09/30 08:26:45;;;;;;;5.82;1.25;;;12.40;99.90;;;;;;5027230;28;20033;-61
2021/09/30 08:29:12;;;;;;;6.20;1.30;;;12.60;99.90;;;;;;5027243;28;20025;-61
2021/09/30 08:31:37;;;;;;;6.95;1.00;;;12.90;99.90;;;;;;5026966;28;20057;-61
2021/09/30 08:34:03;;;;;;;3.97;1.33;;;13.00;99.90;;;;;;5026210;28;20064;-61
2021/09/30 08:36:30;;;;;;;7.10;1.15;;;13.20;99.90;;;;;;5026388;28;20056;-62
2021/09/30 08:38:56;;;;;;;9.20;2.30;;;13.30;99.90;;;;;;5026854;28;20839;-61
2021/09/30 08:41:22;;;;;;;6.10;1.65;;;13.40;99.90;;;;;;5025174;28;20029;-61
2021/09/30 08:43:49;;;;;;;6.43;1.25;;;13.50;99.90;;;;;;5027108;28;20038;-61
2021/09/30 08:46:15;;;;;;;6.95;1.25;;;13.60;99.90;;;;;;5026623;28;20090;-61
2021/09/30 08:48:41;;;;;;;8.15;1.40;;;13.60;99.90;;;;;;5027325;28;20041;-61
2021/09/30 08:51:08;;;;;;;8.30;0.88;;;13.70;99.90;;;;;;5026156;28;20033;-63
2021/09/30 08:53:34;;;;;;;3.88;0.90;;;13.70;99.90;;;;;;5026644;28;20088;-62
2021/09/30 08:56:02;;;;;;;7.88;0.85;;;13.80;99.90;;;;;;5026092;28;20037;-62
2021/09/30 08:58:29;;;;;;;6.22;0.95;;;13.80;99.90;;;;;;5023210;28;20573;-62
2021/09/30 09:00:58;;;;;;;6.82;0.73;;;14.00;99.90;;;;;;5024021;28;20060;-64
2021/09/30 09:03:32;;;;;;;3.77;1.23;;;14.00;99.90;;;;;;5024198;28;20053;-61
2021/09/30 09:05:57;;;;;;;4.07;0.70;;;14.00;99.90;;;;;;5022262;28;20654;-61
2021/09/30 09:08:23;;;;;;;10.45;1.58;;;14.10;99.90;;;;;;5024911;28;20125;-62
2021/09/30 09:10:51;;;;;;;3.38;0.52;;;14.20;99.90;;;;;;5026277;28;20034;-62
2021/09/30 09:13:18;;;;;;;4.53;0.85;;;14.20;99.90;;;;;;5026171;28;20037;-62
2021/09/30 09:15:54;;;;;;;6.35;0.73;;;14.20;99.90;;;;;;5025060;28;20125;-61
2021/09/30 09:18:41;;;;;;;11.02;1.60;;;14.10;99.90;;;;;;5025635;28;20056;-61
2021/09/30 09:21:15;;;;;;;6.18;0.85;;;14.10;99.90;;;;;;5025718;28;20034;-62
2021/09/30 09:23:51;;;;;;;6.60;0.70;;;14.20;99.90;;;;;;5026127;28;20440;-62
2021/09/30 09:26:39;;;;;;;6.00;1.30;;;14.30;99.90;;;;;;5025350;28;20037;-62
2021/09/30 09:29:16;;;;;;;6.82;0.70;;;14.40;99.90;;;;;;5020897;28;20095;-61
2021/09/30 09:31:51;;;;;;;4.15;0.52;;;14.30;99.90;;;;;;5024893;28;20045;-62
2021/09/30 09:34:22;;;;;;;7.10;0.73;;;14.50;99.90;;;;;;5023208;28;20432;-62
2021/09/30 09:36:50;;;;;;;5.53;0.60;;;14.50;99.90;;;;;;5025082;28;20052;-62
2021/09/30 09:39:32;;;;;;;2.70;1.13;;;14.60;99.90;;;;;;5023916;28;20040;-61
2021/09/30 09:42:14;;;;;;;6.95;1.00;;;14.60;99.90;;;;;;5022225;28;20026;-65
2021/09/30 09:45:00;;;;;;;5.82;0.88;;;14.50;99.90;;;;;;5020533;28;20048;-62
2021/09/30 09:47:32;;;;;;;3.13;0.68;;;14.40;99.90;;;;;;5024925;28;20026;-61
2021/09/30 09:50:33;;;;;;;5.13;0.95;;;14.40;99.90;;;;;;5025182;28;20033;-62
2021/09/30 09:53:00;;;;;;;5.90;0.70;;;14.50;99.90;;;;;;5022869;28;20030;-62
2021/09/30 09:55:35;;;;;;;4.85;0.63;;;14.50;99.90;;;;;;5025793;28;20033;-62
2021/09/30 09:58:12;;;;;;;3.72;0.63;;;14.60;99.90;;;;;;5026382;28;20130;-63
2021/09/30 10:00:39;;;;;;;5.45;0.68;;;14.60;99.90;;;;;;5033946;28;20856;-60
2021/09/30 10:03:20;;;;;;;3.78;0.75;;;14.50;99.90;;;;;;5038573;28;20052;-62
2021/09/30 10:05:46;;;;;;;1.85;0.35;;;14.60;99.90;;;;;;5032757;28;20091;-62
2021/09/30 10:08:14;;;;;;;11.85;0.73;;;14.60;99.90;;;;;;5026704;28;20102;-62
2021/09/30 10:10:41;;;;;;;4.97;0.60;;;14.70;99.90;;;;;;5027954;28;20048;-62
2021/09/30 10:13:07;;;;;;;2.88;0.50;;;14.70;99.90;;;;;;5026665;28;20121;-62
2021/09/30 10:15:35;;;;;;;2.13;0.40;;;14.70;99.90;;;;;;5025101;28;20524;-62
2021/09/30 10:18:06;;;;;;;5.38;1.00;;;14.70;99.90;;;;;;5025928;28;20416;-62
2021/09/30 10:20:33;;;;;;;2.40;0.40;;;14.80;99.90;;;;;;5028538;28;20029;-61
2021/09/30 10:23:02;;;;;;;8.10;0.70;;;14.70;99.90;;;;;;5026169;28;20061;-63
2021/09/30 10:25:33;;;;;;;4.70;0.40;;;14.80;99.90;;;;;;5028535;28;20465;-64
2021/09/30 10:28:00;;;;;;;5.43;0.70;;;15.00;99.90;;;;;;5028208;28;20528;-62
2021/09/30 10:30:43;;;;;;;7.43;0.80;;;15.00;99.90;;;;;;5029333;28;20531;-62
2021/09/30 10:33:11;;;;;;;2.90;0.43;;;15.10;99.90;;;;;;5021235;28;20037;-62
2021/09/30 10:35:42;;;;;;;3.15;0.45;;;15.10;99.90;;;;;;5029996;28;20034;-62
2021/09/30 10:38:25;;;;;;;2.88;0.43;;;15.10;99.90;;;;;;5028110;28;20516;-62
2021/09/30 10:41:06;;;;;;;5.70;1.17;;;15.10;99.90;;;;;;5025428;28;20037;-65
2021/09/30 10:43:33;;;;;;;;;;;15.00;99.90;;;;;;5026054;28;20053;-61
2021/09/30 10:45:59;;;;;;;4.68;0.50;;;14.90;99.90;;;;;;5028114;28;19917;-63
2021/09/30 10:48:30;;;;;;;4.40;0.40;;;14.90;99.90;;;;;;5028439;28;20055;-60
2021/09/30 10:50:57;;;;;;;5.65;0.73;;;14.90;99.90;;;;;;5028309;28;20140;-64
2021/09/30 10:53:44;;;;;;;6.25;0.60;;;14.90;99.90;;;;;;5028630;28;20060;-61
2021/09/30 10:56:31;;;;;;;6.78;0.50;;;15.00;99.90;;;;;;5027631;28;20033;-63
2021/09/30 10:59:09;;;;;;;4.13;0.45;;;15.10;99.90;;;;;;5026609;28;20044;-62
2021/09/30 11:01:55;;;;;;;6.15;0.60;;;15.10;99.90;;;;;;5028519;28;20041;-63
2021/09/30 11:04:22;;;;;;;5.13;0.85;;;15.20;99.90;;;;;;5026502;28;20147;-62
2021/09/30 11:07:05;;;;;;;6.95;1.10;;;15.30;99.90;;;;;;5025696;28;20029;-63
2021/09/30 11:09:32;;;;;;;1.92;0.25;;;15.50;99.90;;;;;;5025555;28;20052;-61
2021/09/30 11:12:11;;;;;;;3.40;0.60;;;15.40;99.90;;;;;;5027878;28;20036;-62
2021/09/30 11:14:56;;;;;;;3.88;0.52;;;15.40;99.90;;;;;;5027859;28;20075;-61
2021/09/30 11:17:34;;;;;;;4.13;0.60;;;15.50;99.90;;;;;;5026923;28;20037;-62
2021/09/30 11:20:35;;;;;;;4.50;0.60;;;15.40;99.90;;;;;;5028007;28;20110;-63
2021/09/30 11:23:03;;;;;;;4.43;0.60;;;15.50;99.90;;;;;;5027011;28;20148;-62
2021/09/30 11:26:04;;;;;;;4.40;0.68;;;15.40;99.90;;;;;;5028120;28;20037;-62
2021/09/30 11:28:30;;;;;;;4.68;0.80;;;15.30;99.90;;;;;;5025939;28;20044;-61
2021/09/30 11:31:20;;;;;;;5.40;0.57;;;15.20;99.90;;;;;;5028179;28;20037;-63
2021/09/30 11:33:47;;;;;;;2.83;0.40;;;15.20;99.90;;;;;;5025686;28;20077;-63
2021/09/30 11:36:15;;;;;;;4.68;0.50;;;15.10;99.90;;;;;;5027979;28;20060;-62
2021/09/30 11:38:42;;;;;;;2.80;0.68;;;15.00;99.90;;;;;;5027107;28;20116;-63
2021/09/30 11:41:08;;;;;;;5.68;0.80;;;15.00;99.90;;;;;;5027788;28;20108;-61
2021/09/30 11:43:34;;;;;;;3.45;0.70;;;14.90;99.90;;;;;;5026941;28;20694;-61
2021/09/30 11:46:23;;;;;;;4.68;0.80;;;15.00;99.90;;;;;;5027579;28;20040;-61
2021/09/30 11:49:11;;;;;;;4.03;0.90;;;14.90;99.90;;;;;;5024152;28;20124;-62
2021/09/30 11:51:47;;;;;;;3.30;0.55;;;14.90;99.90;;;;;;5025937;28;20525;-59
2021/09/30 11:54:43;;;;;;;2.28;0.60;;;14.90;99.90;;;;;;5026866;28;20393;-61
2021/09/30 11:57:26;;;;;;;2.38;0.60;;;15.00;99.90;;;;;;5022183;28;20374;-61
2021/09/30 12:00:10;;;;;;;7.32;1.10;;;15.10;99.90;;;;;;5025235;28;20486;-62
2021/09/30 12:02:36;;;;;;;8.65;1.17;;;15.10;99.90;;;;;;5026258;28;20045;-62
2021/09/30 12:05:02;;;;;;;3.05;1.13;;;15.10;99.90;;;;;;5027293;28;20049;-62
2021/09/30 12:07:28;;;;;;;4.43;0.45;;;15.20;99.90;;;;;;5027037;28;20072;-61
2021/09/30 12:09:56;;;;;;;3.08;0.30;;;15.20;99.90;;;;;;5026050;28;20029;-62
2021/09/30 12:12:35;;;;;;;3.92;0.68;;;15.20;99.90;;;;;;5025021;28;20041;-62
2021/09/30 12:15:04;;;;;;;3.95;0.40;;;15.10;99.90;;;;;;5027278;28;20030;-63
2021/09/30 12:17:33;;;;;;;7.93;0.47;;;15.10;99.90;;;;;;5026779;28;20044;-62
2021/09/30 12:19:59;;;;;;;2.42;0.57;;;15.20;99.90;;;;;;5026566;28;20171;-62
2021/09/30 12:22:38;;;;;;;2.55;0.47;;;15.20;99.90;;;;;;5027088;28;20440;-63
2021/09/30 12:25:08;;;;;;;5.38;0.35;;;15.00;99.90;;;;;;5027317;28;20120;-62
2021/09/30 12:27:37;;;;;;;3.35;0.50;;;14.90;99.90;;;;;;5026748;28;20091;-62
2021/09/30 12:30:07;;;;;;;7.07;0.75;;;14.90;99.90;;;;;;5025856;28;20661;-61
2021/09/30 12:32:37;;;;;;;5.55;0.82;;;15.00;99.90;;;;;;5027140;28;20049;-62
2021/09/30 12:35:08;;;;;;;4.22;0.40;;;14.90;99.90;;;;;;5025194;28;20032;-62
2021/09/30 12:37:36;;;;;;;2.83;0.40;;;15.00;99.90;;;;;;5027141;28;20048;-62
2021/09/30 12:40:07;;;;;;;5.35;0.45;;;14.90;99.90;;;;;;5026339;28;20025;-63
2021/09/30 12:42:34;;;;;;;3.17;0.45;;;14.90;99.90;;;;;;5026775;28;20073;-62
2021/09/30 12:45:00;;;;;;;3.55;0.38;;;14.80;99.90;;;;;;5025507;28;20032;-62
2021/09/30 12:47:33;;;;;;;6.32;0.60;;;14.70;99.90;;;;;;5026110;28;20061;-62
2021/09/30 12:50:12;;;;;;;9.05;0.88;;;14.50;99.90;;;;;;5026348;28;20037;-62
2021/09/30 12:52:39;;;;;;;4.65;0.47;;;14.50;99.90;;;;;;5026271;28;20045;-61
2021/09/30 12:55:20;;;;;;;1.90;0.47;;;14.40;99.90;;;;;;5026076;28;20037;-62
2021/09/30 12:57:45;;;;;;;2.97;0.60;;;14.30;99.90;;;;;;5026056;28;20037;-62
2021/09/30 13:00:17;;;;;;;3.60;0.47;;;14.30;99.90;;;;;;5025911;28;20030;-62
2021/09/30 13:02:44;;;;;;;4.05;0.22;;;14.20;99.90;;;;;;5023725;28;20124;-62
2021/09/30 13:05:10;;;;;;;6.05;0.50;;;14.20;99.90;;;;;;5026000;28;20455;-61
2021/09/30 13:07:58;;;;;;;3.55;0.70;;;14.10;99.90;;;;;;5025820;28;20029;-61
2021/09/30 13:10:33;;;;;;;6.75;0.50;;;14.10;99.90;;;;;;5025215;28;20106;-62
2021/09/30 13:13:01;;;;;;;4.32;0.45;;;14.10;99.90;;;;;;5026046;28;20041;-62
2021/09/30 13:15:33;;;;;;;3.40;0.50;;;14.10;99.90;;;;;;5025898;28;20034;-62
2021/09/30 13:18:00;;;;;;;8.77;0.60;;;14.20;99.90;;;;;;5026021;28;20180;-61
2021/09/30 13:20:26;;;;;;;1.20;0.30;;;14.10;99.90;;;;;;5025255;28;20120;-62
2021/09/30 13:22:52;;;;;;;6.03;0.80;;;14.20;99.90;;;;;;5025904;28;20048;-61
2021/09/30 13:25:19;;;;;;;4.63;0.40;;;14.20;99.90;;;;;;5026162;28;20029;-62
2021/09/30 13:27:47;;;;;;;4.35;0.60;;;14.20;99.90;;;;;;5026067;28;20087;-62
2021/09/30 13:30:15;;;;;;;4.45;0.43;;;14.20;99.90;;;;;;5026252;28;20033;-65
2021/09/30 13:32:42;;;;;;;17.23;0.93;;;14.20;99.90;;;;;;5044521;28;20040;-63
2021/09/30 13:35:09;;;;;;;4.05;0.98;;;14.20;99.90;;;;;;5024413;28;20092;-63
2021/09/30 13:37:34;;;;;;;3.50;0.50;;;14.30;99.90;;;;;;5026427;28;20128;-63
2021/09/30 13:40:00;;;;;;;3.78;0.52;;;14.40;99.90;;;;;;5025439;28;20524;-64
2021/09/30 13:42:29;;;;;;;3.92;0.60;;;14.50;99.90;;;;;;5025602;28;20466;-63
2021/09/30 13:44:56;;;;;;;2.00;0.98;;;14.60;99.90;;;;;;5042233;28;20045;-62
2021/09/30 13:47:22;;;;;;;3.60;0.77;;;14.70;99.90;;;;;;5025096;28;20034;-62
2021/09/30 13:49:48;;;;;;;6.68;0.40;;;14.80;99.90;;;;;;5025813;28;20397;-63
2021/09/30 13:52:14;;;;;;;3.72;0.82;;;14.90;99.90;;;;;;5025016;28;20026;-62
2021/09/30 13:54:40;;;;;;;6.85;1.10;;;14.90;99.90;;;;;;5025926;28;20555;-62
2021/09/30 13:57:05;;;;;;;2.15;0.47;;;14.90;99.90;;;;;;5024325;28;20044;-62
2021/09/30 13:59:31;;;;;;;2.42;0.55;;;14.90;99.90;;;;;;5023607;28;20094;-62
2021/09/30 14:01:57;;;;;;;6.22;0.50;;;14.90;99.90;;;;;;5023529;28;20037;-62
2021/09/30 14:04:22;;;;;;;2.45;0.40;;;14.90;99.90;;;;;;5024819;28;20030;-64
2021/09/30 14:06:49;;;;;;;3.50;0.73;;;14.80;99.90;;;;;;5024475;28;20025;-62
2021/09/30 14:09:14;;;;;;;3.03;0.40;;;14.80;99.90;;;;;;5024779;28;20040;-62
2021/09/30 14:11:42;;;;;;;3.90;0.52;;;14.70;99.90;;;;;;5024672;28;20037;-61
2021/09/30 14:14:08;;;;;;;5.20;0.52;;;14.70;99.90;;;;;;5025199;28;20094;-62
2021/09/30 14:16:34;;;;;;;3.05;0.32;;;14.70;99.90;;;;;;5025362;28;20053;-61
2021/09/30 14:19:01;;;;;;;1.88;0.32;;;14.80;99.90;;;;;;5023900;28;20999;-61
2021/09/30 14:21:27;;;;;;;3.90;0.80;;;14.80;99.90;;;;;;5031454;28;20025;-62
2021/09/30 14:23:53;;;;;;;5.88;0.50;;;14.70;99.90;;;;;;5025446;28;20045;-62
2021/09/30 14:26:18;;;;;;;5.60;0.95;;;14.70;99.90;;;;;;5023856;28;20040;-62
2021/09/30 14:28:44;;;;;;;8.73;1.05;;;14.70;99.90;;;;;;5024486;28;20056;-62
2021/09/30 14:31:10;;;;;;;8.60;0.70;;;14.60;99.90;;;;;;5025195;28;20112;-62
2021/09/30 14:33:36;;;;;;;6.57;0.60;;;14.50;99.90;;;;;;5029329;28;20041;-62
2021/09/30 14:36:04;;;;;;;2.80;0.30;;;14.50;99.90;;;;;;5031702;28;20029;-62
2021/09/30 14:38:30;;;;;;;4.82;0.70;;;14.50;99.90;;;;;;5055503;28;20151;-61
2021/09/30 14:40:56;;;;;;;6.32;1.40;;;14.50;99.90;;;;;;5031609;28;20112;-62
2021/09/30 14:43:24;;;;;;;5.13;0.57;;;14.40;99.90;;;;;;5030988;28;20037;-63
2021/09/30 14:45:51;;;;;;;8.95;0.55;;;14.40;99.90;;;;;;5031633;28;20087;-62
2021/09/30 14:48:17;;;;;;;2.72;0.40;;;14.40;99.90;;;;;;5030313;28;20481;-61
2021/09/30 14:50:44;;;;;;;3.55;0.55;;;14.50;99.90;;;;;;5030388;28;20037;-62
2021/09/30 14:53:11;;;;;;;7.43;0.38;;;14.50;99.90;;;;;;5031988;28;20029;-62
2021/09/30 14:55:37;;;;;;;1.48;0.35;;;14.50;99.90;;;;;;5031828;28;20038;-62
2021/09/30 14:58:04;;;;;;;1.88;0.30;;;14.50;99.90;;;;;;5027714;28;20559;-61
2021/09/30 15:00:30;;;;;;;3.08;0.75;;;14.50;99.90;;;;;;5031814;28;20056;-61
2021/09/30 15:02:56;;;;;;;2.50;0.90;;;14.50;99.90;;;;;;5031142;28;20038;-63
2021/09/30 15:05:21;;;;;;;2.63;0.43;;;14.40;99.90;;;;;;5031760;28;20037;-62
2021/09/30 15:07:47;;;;;;;5.18;0.70;;;14.40;99.90;;;;;;5029625;28;20661;-62
2021/09/30 15:10:13;;;;;;;4.47;0.60;;;14.30;99.90;;;;;;5030834;28;20037;-62
2021/09/30 15:12:38;;;;;;;4.53;0.55;;;14.30;99.90;;;;;;5031978;28;20485;-62
2021/09/30 15:15:05;;;;;;;7.78;0.38;;;14.40;99.90;;;;;;5031145;28;20523;-63
2021/09/30 15:22:36;;;;;;;6.07;0.40;;;14.40;99.90;;;;;;5027822;28;20087;-61
2021/09/30 15:25:04;;;;;;;5.05;0.35;;;14.40;99.90;;;;;;5026943;28;20037;-62
2021/09/30 15:27:29;;;;;;;1.52;0.40;;;14.40;99.90;;;;;;5031623;28;20060;-62
2021/09/30 15:29:55;;;;;;;3.78;0.40;;;14.40;99.90;;;;;;5030679;28;20107;-62
2021/09/30 15:32:21;;;;;;;3.78;0.30;;;14.40;99.90;;;;;;5031262;28;20029;-64
2021/09/30 15:34:48;;;;;;;3.33;0.70;;;14.40;99.90;;;;;;5030672;28;20033;-62
2021/09/30 15:37:15;;;;;;;2.45;0.40;;;14.30;99.90;;;;;;5031131;28;20096;-63
2021/09/30 15:39:40;;;;;;;5.03;0.50;;;14.30;99.90;;;;;;5030846;28;20111;-63
2021/09/30 15:42:09;;;;;;;3.58;0.50;;;14.30;99.90;;;;;;5030457;28;20057;-62
2021/09/30 15:44:35;;;;;;;4.80;0.50;;;14.20;99.90;;;;;;5030897;28;20029;-62
2021/09/30 15:47:00;;;;;;;9.77;1.60;;;14.20;99.90;;;;;;5030709;28;20079;-61
2021/09/30 15:49:26;;;;;;;3.40;0.80;;;14.20;99.90;;;;;;5030718;28;20041;-62
2021/09/30 15:51:52;;;;;;;3.35;0.50;;;14.20;99.90;;;;;;5030331;28;20025;-62
2021/09/30 15:54:17;;;;;;;4.55;0.50;;;14.20;99.90;;;;;;5030841;28;20477;-64